sensor_id;sensor_type;location;lat;lon;timestamp;pressure;altitude;pressure_sealevel;temperature;humidity
14295;BME280;7231;59.370;18.016;2022-10-16T00:01:04;100313.31;;;13.09;100.00
14295;BME280;7231;59.370;18.016;2022-10-16T00:03:33;100308.03;;;13.08;100.00
14295;BME280;7231;59.370;18.016;2022-10-16T00:06:01;100300.13;;;13.06;100.00
14295;BME280;7231;59.370;18.016;2022-10-16T00:08:29;100288.72;;;13.07;100.00
14295;BME280;7231;59.370;18.016;2022-10-16T00:11:02;100286.94;;;13.03;100.00
14295;BME280;7231;59.370;18.016;2022-10-16T00:13:31;100295.75;;;13.07;100.00
14295;BME280;7231;59.370;18.016;2022-10-16T00:16:01;100287.84;;;13.07;100.00
14295;BME280;7231;59.370;18.016;2022-10-16T00:18:29;100294.84;;;13.05;100.00
14295;BME280;7231;59.370;18.016;2022-10-16T00:21:02;100290.47;;;13.05;100.00
14295;BME280;7231;59.370;18.016;2022-10-16T00:23:30;100293.97;;;13.06;100.00
14295;BME280;7231;59.370;18.016;2022-10-16T00:26:00;100285.19;;;13.05;100.00
14295;BME280;7231;59.370;18.016;2022-10-16T00:28:29;100280.81;;;13.04;100.00
14295;BME280;7231;59.370;18.016;2022-10-16T00:30:57;100282.56;;;13.04;100.00
14295;BME280;7231;59.370;18.016;2022-10-16T00:33:26;100282.53;;;12.97;100.00
14295;BME280;7231;59.370;18.016;2022-10-16T00:35:54;100279.03;;;12.97;100.00
14295;BME280;7231;59.370;18.016;2022-10-16T00:38:25;100275.53;;;12.98;100.00
14295;BME280;7231;59.370;18.016;2022-10-16T00:40:53;100249.88;;;12.77;100.00
14295;BME280;7231;59.370;18.016;2022-10-16T00:43:39;100252.59;;;12.86;100.00
14295;BME280;7231;59.370;18.016;2022-10-16T00:46:13;100271.91;;;12.88;100.00
14295;BME280;7231;59.370;18.016;2022-10-16T00:48:48;100273.66;;;12.86;100.00
14295;BME280;7231;59.370;18.016;2022-10-16T00:51:20;100271.88;;;12.85;100.00
14295;BME280;7231;59.370;18.016;2022-10-16T00:53:50;100269.25;;;12.84;100.00
14295;BME280;7231;59.370;18.016;2022-10-16T00:56:18;100272.78;;;12.86;100.00
14295;BME280;7231;59.370;18.016;2022-10-16T00:58:46;100266.59;;;12.82;100.00
14295;BME280;7231;59.370;18.016;2022-10-16T01:01:14;100235.72;;;12.64;100.00
14295;BME280;7231;59.370;18.016;2022-10-16T01:03:44;100259.47;;;12.71;100.00
14295;BME280;7231;59.370;18.016;2022-10-16T01:06:19;100281.47;;;12.79;100.00
14295;BME280;7231;59.370;18.016;2022-10-16T01:09:06;100267.41;;;12.77;100.00
14295;BME280;7231;59.370;18.016;2022-10-16T01:11:44;100258.66;;;12.76;100.00
14295;BME280;7231;59.370;18.016;2022-10-16T01:14:22;100259.50;;;12.75;100.00
14295;BME280;7231;59.370;18.016;2022-10-16T01:16:58;100262.13;;;12.72;100.00
14295;BME280;7231;59.370;18.016;2022-10-16T01:19:40;100262.09;;;12.71;100.00
14295;BME280;7231;59.370;18.016;2022-10-16T01:22:12;100277.84;;;12.67;100.00
14295;BME280;7231;59.370;18.016;2022-10-16T01:24:44;100259.34;;;12.60;100.00
14295;BME280;7231;59.370;18.016;2022-10-16T01:27:21;100258.50;;;12.62;100.00
14295;BME280;7231;59.370;18.016;2022-10-16T01:29:54;100256.75;;;12.63;100.00
14295;BME280;7231;59.370;18.016;2022-10-16T01:32:30;100282.19;;;12.64;100.00
14295;BME280;7231;59.370;18.016;2022-10-16T01:35:03;100275.19;;;12.64;100.00
14295;BME280;7231;59.370;18.016;2022-10-16T01:37:35;100277.81;;;12.63;100.00
14295;BME280;7231;59.370;18.016;2022-10-16T01:40:07;100284.88;;;12.70;100.00
14295;BME280;7231;59.370;18.016;2022-10-16T01:42:41;100277.88;;;12.69;100.00
14295;BME280;7231;59.370;18.016;2022-10-16T01:45:13;100279.66;;;12.72;100.00
14295;BME280;7231;59.370;18.016;2022-10-16T01:47:45;100270.78;;;12.62;100.00
14295;BME280;7231;59.370;18.016;2022-10-16T01:50:15;100284.88;;;12.68;100.00
14295;BME280;7231;59.370;18.016;2022-10-16T01:52:48;100284.06;;;12.76;100.00
14295;BME280;7231;59.370;18.016;2022-10-16T01:55:22;100295.47;;;12.76;100.00
14295;BME280;7231;59.370;18.016;2022-10-16T01:57:54;100263.75;;;12.61;100.00
14295;BME280;7231;59.370;18.016;2022-10-16T02:00:23;100233.81;;;12.48;100.00
14295;BME280;7231;59.370;18.016;2022-10-16T02:02:53;100281.41;;;12.73;100.00
14295;BME280;7231;59.370;18.016;2022-10-16T02:05:27;100268.31;;;12.77;100.00
14295;BME280;7231;59.370;18.016;2022-10-16T02:07:55;100261.28;;;12.78;100.00
14295;BME280;7231;59.370;18.016;2022-10-16T02:10:28;100263.03;;;12.76;100.00
14295;BME280;7231;59.370;18.016;2022-10-16T02:13:03;100264.81;;;12.78;100.00
14295;BME280;7231;59.370;18.016;2022-10-16T02:15:33;100267.44;;;12.80;100.00
14295;BME280;7231;59.370;18.016;2022-10-16T02:18:01;100271.88;;;12.82;100.00
14295;BME280;7231;59.370;18.016;2022-10-16T02:20:34;100261.31;;;12.81;100.00
14295;BME280;7231;59.370;18.016;2022-10-16T02:23:04;100267.50;;;12.84;100.00
14295;BME280;7231;59.370;18.016;2022-10-16T02:25:40;100268.38;;;12.85;100.00
14295;BME280;7231;59.370;18.016;2022-10-16T02:28:16;100272.78;;;12.87;100.00
14295;BME280;7231;59.370;18.016;2022-10-16T02:30:49;100267.53;;;12.87;100.00
14295;BME280;7231;59.370;18.016;2022-10-16T02:33:20;100272.78;;;12.86;100.00
14295;BME280;7231;59.370;18.016;2022-10-16T02:35:50;100263.06;;;12.80;100.00
14295;BME280;7231;59.370;18.016;2022-10-16T02:38:20;100275.41;;;12.87;100.00
14295;BME280;7231;59.370;18.016;2022-10-16T02:40:49;100265.63;;;12.73;100.00
14295;BME280;7231;59.370;18.016;2022-10-16T02:43:18;100282.41;;;12.85;100.00
14295;BME280;7231;59.370;18.016;2022-10-16T02:45:47;100284.16;;;12.85;100.00
14295;BME280;7231;59.370;18.016;2022-10-16T02:48:15;100275.41;;;12.86;100.00
14295;BME280;7231;59.370;18.016;2022-10-16T02:50:42;100259.63;;;12.86;100.00
14295;BME280;7231;59.370;18.016;2022-10-16T02:53:11;100262.22;;;12.83;100.00
14295;BME280;7231;59.370;18.016;2022-10-16T02:55:39;100243.84;;;12.86;100.00
14295;BME280;7231;59.370;18.016;2022-10-16T02:58:06;100223.59;;;12.79;100.00
14295;BME280;7231;59.370;18.016;2022-10-16T03:00:36;100233.31;;;12.87;100.00
14295;BME280;7231;59.370;18.016;2022-10-16T03:03:04;100195.34;;;12.59;100.00
14295;BME280;7231;59.370;18.016;2022-10-16T03:05:32;100242.09;;;12.88;100.00
14295;BME280;7231;59.370;18.016;2022-10-16T03:08:00;100235.97;;;12.89;100.00
14295;BME280;7231;59.370;18.016;2022-10-16T03:10:28;100235.94;;;12.86;100.00
14295;BME280;7231;59.370;18.016;2022-10-16T03:12:56;100233.31;;;12.86;100.00
14295;BME280;7231;59.370;18.016;2022-10-16T03:15:24;100223.69;;;12.88;100.00
14295;BME280;7231;59.370;18.016;2022-10-16T03:17:53;100225.41;;;12.84;100.00
14295;BME280;7231;59.370;18.016;2022-10-16T03:20:21;100217.47;;;12.81;100.00
14295;BME280;7231;59.370;18.016;2022-10-16T03:22:49;100222.72;;;12.80;100.00
14295;BME280;7231;59.370;18.016;2022-10-16T03:25:18;100213.00;;;12.73;100.00
14295;BME280;7231;59.370;18.016;2022-10-16T03:27:45;100223.53;;;12.73;100.00
14295;BME280;7231;59.370;18.016;2022-10-16T03:30:14;100220.88;;;12.70;100.00
14295;BME280;7231;59.370;18.016;2022-10-16T03:32:43;100225.22;;;12.66;100.00
14295;BME280;7231;59.370;18.016;2022-10-16T03:35:12;100234.84;;;12.64;100.00
14295;BME280;7231;59.370;18.016;2022-10-16T03:37:40;100238.31;;;12.58;100.00
14295;BME280;7231;59.370;18.016;2022-10-16T03:40:09;100227.81;;;12.61;100.00
14295;BME280;7231;59.370;18.016;2022-10-16T03:42:37;100216.38;;;12.58;100.00
14295;BME280;7231;59.370;18.016;2022-10-16T03:45:05;100214.59;;;12.55;100.00
14295;BME280;7231;59.370;18.016;2022-10-16T03:47:33;100219.81;;;12.51;100.00
14295;BME280;7231;59.370;18.016;2022-10-16T03:50:02;100213.66;;;12.49;100.00
14295;BME280;7231;59.370;18.016;2022-10-16T03:52:31;100211.00;;;12.47;100.00
14295;BME280;7231;59.370;18.016;2022-10-16T03:55:00;100207.44;;;12.41;100.00
14295;BME280;7231;59.370;18.016;2022-10-16T03:57:28;100207.41;;;12.38;100.00
14295;BME280;7231;59.370;18.016;2022-10-16T03:59:55;100210.06;;;12.41;100.00
14295;BME280;7231;59.370;18.016;2022-10-16T04:02:23;100201.34;;;12.43;100.00
14295;BME280;7231;59.370;18.016;2022-10-16T04:04:51;100214.47;;;12.43;100.00
14295;BME280;7231;59.370;18.016;2022-10-16T04:07:19;100209.22;;;12.43;100.00
14295;BME280;7231;59.370;18.016;2022-10-16T04:09:49;100193.41;;;12.39;100.00
14295;BME280;7231;59.370;18.016;2022-10-16T04:12:18;100196.03;;;12.39;100.00
14295;BME280;7231;59.370;18.016;2022-10-16T04:14:46;100191.63;;;12.36;100.00
14295;BME280;7231;59.370;18.016;2022-10-16T04:17:14;100211.84;;;12.43;100.00
14295;BME280;7231;59.370;18.016;2022-10-16T04:19:42;100211.81;;;12.40;100.00
14295;BME280;7231;59.370;18.016;2022-10-16T04:22:10;100207.34;;;12.33;100.00
14295;BME280;7231;59.370;18.016;2022-10-16T04:24:38;100213.53;;;12.37;100.00
14295;BME280;7231;59.370;18.016;2022-10-16T04:27:07;100196.75;;;12.25;100.00
14295;BME280;7231;59.370;18.016;2022-10-16T04:29:35;100215.28;;;12.36;100.00
14295;BME280;7231;59.370;18.016;2022-10-16T04:32:04;100237.19;;;12.35;100.00
14295;BME280;7231;59.370;18.016;2022-10-16T04:34:32;100238.00;;;12.31;100.00
14295;BME280;7231;59.370;18.016;2022-10-16T04:37:00;100227.50;;;12.32;100.00
14295;BME280;7231;59.370;18.016;2022-10-16T04:39:29;100229.25;;;12.32;100.00
14295;BME280;7231;59.370;18.016;2022-10-16T04:41:57;100224.00;;;12.32;100.00
14295;BME280;7231;59.370;18.016;2022-10-16T04:44:26;100204.56;;;12.19;100.00
14295;BME280;7231;59.370;18.016;2022-10-16T04:46:54;100209.81;;;12.18;100.00
14295;BME280;7231;59.370;18.016;2022-10-16T04:49:22;100208.81;;;12.08;100.00
14295;BME280;7231;59.370;18.016;2022-10-16T04:51:50;100207.97;;;12.09;100.00
14295;BME280;7231;59.370;18.016;2022-10-16T04:54:18;100228.09;;;12.07;100.00
14295;BME280;7231;59.370;18.016;2022-10-16T04:56:46;100204.28;;;11.93;100.00
14295;BME280;7231;59.370;18.016;2022-10-16T04:59:17;100231.53;;;12.01;100.00
14295;BME280;7231;59.370;18.016;2022-10-16T05:01:47;100215.66;;;11.92;100.00
14295;BME280;7231;59.370;18.016;2022-10-16T05:04:15;100221.84;;;11.99;100.00
14295;BME280;7231;59.370;18.016;2022-10-16T05:06:43;100216.59;;;11.97;100.00
14295;BME280;7231;59.370;18.016;2022-10-16T05:09:11;100219.13;;;11.91;100.00
14295;BME280;7231;59.370;18.016;2022-10-16T05:11:39;100241.09;;;11.96;100.00
14295;BME280;7231;59.370;18.016;2022-10-16T05:14:07;100220.84;;;11.88;100.00
14295;BME280;7231;59.370;18.016;2022-10-16T05:16:40;100232.25;;;11.90;100.00
14295;BME280;7231;59.370;18.016;2022-10-16T05:19:09;100237.50;;;11.90;100.00
14295;BME280;7231;59.370;18.016;2022-10-16T05:21:54;100212.84;;;11.79;100.00
14295;BME280;7231;59.370;18.016;2022-10-16T05:24:22;100245.31;;;11.85;100.00
14295;BME280;7231;59.370;18.016;2022-10-16T05:26:50;100217.22;;;11.78;100.00
14295;BME280;7231;59.370;18.016;2022-10-16T05:29:19;100230.44;;;11.86;100.00
14295;BME280;7231;59.370;18.016;2022-10-16T05:31:50;100220.81;;;11.86;100.00
14295;BME280;7231;59.370;18.016;2022-10-16T05:34:20;100212.91;;;11.85;100.00
14295;BME280;7231;59.370;18.016;2022-10-16T05:36:48;100218.22;;;11.89;100.00
14295;BME280;7231;59.370;18.016;2022-10-16T05:39:16;100228.75;;;11.89;100.00
14295;BME280;7231;59.370;18.016;2022-10-16T05:41:44;100222.59;;;11.87;100.00
14295;BME280;7231;59.370;18.016;2022-10-16T05:44:13;100232.28;;;11.93;100.00
14295;BME280;7231;59.370;18.016;2022-10-16T05:46:41;100227.03;;;11.93;100.00
14295;BME280;7231;59.370;18.016;2022-10-16T05:49:09;100210.34;;;11.88;100.00
14295;BME280;7231;59.370;18.016;2022-10-16T05:51:38;100225.31;;;11.96;100.00
14295;BME280;7231;59.370;18.016;2022-10-16T05:54:06;100228.84;;;11.97;100.00
14295;BME280;7231;59.370;18.016;2022-10-16T05:56:34;100227.94;;;11.96;100.00
14295;BME280;7231;59.370;18.016;2022-10-16T05:59:03;100236.75;;;11.98;100.00
14295;BME280;7231;59.370;18.016;2022-10-16T06:01:31;100234.97;;;11.97;100.00
14295;BME280;7231;59.370;18.016;2022-10-16T06:03:59;100245.53;;;12.00;100.00
14295;BME280;7231;59.370;18.016;2022-10-16T06:06:28;100247.28;;;12.01;100.00
14295;BME280;7231;59.370;18.016;2022-10-16T06:08:57;100249.03;;;12.02;100.00
14295;BME280;7231;59.370;18.016;2022-10-16T06:11:29;100251.69;;;12.04;100.00
14295;BME280;7231;59.370;18.016;2022-10-16T06:13:59;100239.44;;;12.05;100.00
14295;BME280;7231;59.370;18.016;2022-10-16T06:16:28;100245.63;;;12.10;100.00
14295;BME280;7231;59.370;18.016;2022-10-16T06:18:56;100220.03;;;11.93;100.00
14295;BME280;7231;59.370;18.016;2022-10-16T06:21:26;100243.00;;;12.08;100.00
14295;BME280;7231;59.370;18.016;2022-10-16T06:23:57;100252.78;;;12.20;100.00
14295;BME280;7231;59.370;18.016;2022-10-16T06:26:26;100251.94;;;12.24;100.00
14295;BME280;7231;59.370;18.016;2022-10-16T06:28:55;100240.44;;;12.16;100.00
14295;BME280;7231;59.370;18.016;2022-10-16T06:31:23;100265.19;;;12.33;100.00
14295;BME280;7231;59.370;18.016;2022-10-16T06:33:54;100257.34;;;12.36;100.00
14295;BME280;7231;59.370;18.016;2022-10-16T06:36:23;100268.78;;;12.41;100.00
14295;BME280;7231;59.370;18.016;2022-10-16T06:38:52;100267.09;;;12.46;100.00
14295;BME280;7231;59.370;18.016;2022-10-16T06:41:22;100260.09;;;12.48;100.00
14295;BME280;7231;59.370;18.016;2022-10-16T06:43:50;100268.09;;;12.56;100.00
14295;BME280;7231;59.370;18.016;2022-10-16T06:46:21;100265.41;;;12.51;100.00
14295;BME280;7231;59.370;18.016;2022-10-16T06:48:49;100283.06;;;12.63;100.00
14295;BME280;7231;59.370;18.016;2022-10-16T06:51:18;100274.31;;;12.65;100.00
14295;BME280;7231;59.370;18.016;2022-10-16T06:53:48;100274.34;;;12.68;100.00
14295;BME280;7231;59.370;18.016;2022-10-16T06:56:34;100294.56;;;12.74;100.00
14295;BME280;7231;59.370;18.016;2022-10-16T06:59:03;100283.22;;;12.77;100.00
14295;BME280;7231;59.370;18.016;2022-10-16T07:01:32;100287.63;;;12.81;100.00
14295;BME280;7231;59.370;18.016;2022-10-16T07:04:00;100285.91;;;12.83;100.00
14295;BME280;7231;59.370;18.016;2022-10-16T07:06:31;100287.69;;;12.85;100.00
14295;BME280;7231;59.370;18.016;2022-10-16T07:09:01;100284.19;;;12.88;100.00
14295;BME280;7231;59.370;18.016;2022-10-16T07:11:30;100288.56;;;12.87;100.00
14295;BME280;7231;59.370;18.016;2022-10-16T07:13:59;100285.97;;;12.90;100.00
14295;BME280;7231;59.370;18.016;2022-10-16T07:16:28;100293.00;;;12.93;100.00
14295;BME280;7231;59.370;18.016;2022-10-16T07:18:58;100291.25;;;12.93;100.00
14295;BME280;7231;59.370;18.016;2022-10-16T07:21:28;100289.53;;;12.95;100.00
14295;BME280;7231;59.370;18.016;2022-10-16T07:23:58;100268.38;;;12.83;100.00
14295;BME280;7231;59.370;18.016;2022-10-16T07:26:29;100290.41;;;12.96;100.00
14295;BME280;7231;59.370;18.016;2022-10-16T07:28:59;100287.75;;;12.93;100.00
14295;BME280;7231;59.370;18.016;2022-10-16T07:31:28;100295.66;;;12.94;100.00
14295;BME280;7231;59.370;18.016;2022-10-16T07:33:58;100292.19;;;12.97;100.00
14295;BME280;7231;59.370;18.016;2022-10-16T07:36:26;100295.72;;;12.99;100.00
14295;BME280;7231;59.370;18.016;2022-10-16T07:38:54;100294.84;;;13.00;100.00
14295;BME280;7231;59.370;18.016;2022-10-16T07:41:26;100298.34;;;13.04;100.00
14295;BME280;7231;59.370;18.016;2022-10-16T07:43:54;100272.81;;;12.90;100.00
14295;BME280;7231;59.370;18.016;2022-10-16T07:46:26;100299.28;;;13.09;100.00
14295;BME280;7231;59.370;18.016;2022-10-16T07:48:54;100295.75;;;13.07;100.00
14295;BME280;7231;59.370;18.016;2022-10-16T07:51:23;100279.06;;;13.00;100.00
14295;BME280;7231;59.370;18.016;2022-10-16T07:53:52;100290.50;;;13.08;100.00
14295;BME280;7231;59.370;18.016;2022-10-16T07:56:21;100251.66;;;12.80;100.00
14295;BME280;7231;59.370;18.016;2022-10-16T07:58:49;100294.81;;;13.01;100.00
14295;BME280;7231;59.370;18.016;2022-10-16T08:01:18;100219.03;;;12.59;100.00
14295;BME280;7231;59.370;18.016;2022-10-16T08:03:49;100300.09;;;13.03;100.00
14295;BME280;7231;59.370;18.016;2022-10-16T08:06:19;100263.94;;;12.81;100.00
14295;BME280;7231;59.370;18.016;2022-10-16T08:08:53;100304.50;;;13.04;100.00
14295;BME280;7231;59.370;18.016;2022-10-16T08:11:22;100298.34;;;13.04;100.00
14295;BME280;7231;59.370;18.016;2022-10-16T08:13:50;100303.59;;;13.04;100.00
14295;BME280;7231;59.370;18.016;2022-10-16T08:16:18;100275.41;;;12.86;100.00
14295;BME280;7231;59.370;18.016;2022-10-16T08:18:47;100293.97;;;12.99;100.00
14295;BME280;7231;59.370;18.016;2022-10-16T08:21:19;100300.97;;;12.99;100.00
14295;BME280;7231;59.370;18.016;2022-10-16T08:23:48;100303.56;;;12.94;100.00
14295;BME280;7231;59.370;18.016;2022-10-16T08:26:24;100258.56;;;12.68;100.00
14295;BME280;7231;59.370;18.016;2022-10-16T08:28:53;100314.13;;;12.97;100.00
14295;BME280;7231;59.370;18.016;2022-10-16T08:31:21;100322.00;;;13.02;100.00
14295;BME280;7231;59.370;18.016;2022-10-16T08:33:51;100311.50;;;13.02;100.00
14295;BME280;7231;59.370;18.016;2022-10-16T08:36:19;100318.53;;;13.03;100.00
14295;BME280;7231;59.370;18.016;2022-10-16T08:38:48;100303.63;;;13.05;100.00
14295;BME280;7231;59.370;18.016;2022-10-16T08:41:23;100307.13;;;13.06;100.00
14295;BME280;7231;59.370;18.016;2022-10-16T08:44:13;100281.56;;;12.88;100.00
14295;BME280;7231;59.370;18.016;2022-10-16T08:46:53;100325.56;;;13.07;100.00
14295;BME280;7231;59.370;18.016;2022-10-16T08:49:31;100327.34;;;13.08;100.00
14295;BME280;7231;59.370;18.016;2022-10-16T08:51:59;100303.59;;;13.04;100.00
14295;BME280;7231;59.370;18.016;2022-10-16T08:54:30;100322.09;;;13.11;100.00
14295;BME280;7231;59.370;18.016;2022-10-16T08:57:07;100316.00;;;13.15;100.00
14295;BME280;7231;59.370;18.016;2022-10-16T08:59:36;100317.75;;;13.15;100.00
14295;BME280;7231;59.370;18.016;2022-10-16T09:02:22;100330.03;;;13.13;100.00
14295;BME280;7231;59.370;18.016;2022-10-16T09:05:03;100288.59;;;12.89;100.00
14295;BME280;7231;59.370;18.016;2022-10-16T09:07:46;100320.31;;;13.07;100.00
14295;BME280;7231;59.370;18.016;2022-10-16T09:10:29;100323.91;;;13.15;100.00
14295;BME280;7231;59.370;18.016;2022-10-16T09:13:10;100311.69;;;13.20;100.00
14295;BME280;7231;59.370;18.016;2022-10-16T09:15:47;100326.69;;;13.29;100.00
14295;BME280;7231;59.370;18.016;2022-10-16T09:18:23;100324.94;;;13.29;100.00
14295;BME280;7231;59.370;18.016;2022-10-16T09:21:05;100324.09;;;13.33;100.00
14295;BME280;7231;59.370;18.016;2022-10-16T09:23:37;100324.16;;;13.41;100.00
14295;BME280;7231;59.370;18.016;2022-10-16T09:26:09;100321.63;;;13.52;100.00
14295;BME280;7231;59.370;18.016;2022-10-16T09:28:38;100322.53;;;13.57;100.00
14295;BME280;7231;59.370;18.016;2022-10-16T09:31:13;100321.69;;;13.62;100.00
14295;BME280;7231;59.370;18.016;2022-10-16T09:33:44;100310.28;;;13.63;100.00
14295;BME280;7231;59.370;18.016;2022-10-16T09:36:14;100291.81;;;13.57;99.36
14295;BME280;7231;59.370;18.016;2022-10-16T09:38:42;100315.63;;;13.71;99.40
14295;BME280;7231;59.370;18.016;2022-10-16T09:41:15;100323.56;;;13.80;98.74
14295;BME280;7231;59.370;18.016;2022-10-16T09:43:52;100313.91;;;13.79;97.90
14295;BME280;7231;59.370;18.016;2022-10-16T09:46:24;100320.06;;;13.80;97.42
14295;BME280;7231;59.370;18.016;2022-10-16T09:48:55;100312.16;;;13.80;96.74
14295;BME280;7231;59.370;18.016;2022-10-16T09:51:27;100322.66;;;13.75;96.26
14295;BME280;7231;59.370;18.016;2022-10-16T09:53:57;100318.31;;;13.79;96.54
14295;BME280;7231;59.370;18.016;2022-10-16T09:56:27;100260.16;;;13.50;96.54
14295;BME280;7231;59.370;18.016;2022-10-16T09:58:57;100304.31;;;13.87;96.43
14295;BME280;7231;59.370;18.016;2022-10-16T10:01:30;100288.50;;;13.89;96.11
14295;BME280;7231;59.370;18.016;2022-10-16T10:03:59;100315.97;;;14.34;96.86
14295;BME280;7231;59.370;18.016;2022-10-16T10:06:33;100310.88;;;14.75;96.39
14295;BME280;7231;59.370;18.016;2022-10-16T10:09:06;100326.78;;;15.02;93.96
14295;BME280;7231;59.370;18.016;2022-10-16T10:11:44;100321.50;;;15.13;92.87
14295;BME280;7231;59.370;18.016;2022-10-16T10:14:17;100318.88;;;15.30;91.39
14295;BME280;7231;59.370;18.016;2022-10-16T10:16:47;100296.88;;;15.24;89.88
14295;BME280;7231;59.370;18.016;2022-10-16T10:19:16;100267.78;;;14.82;87.86
14295;BME280;7231;59.370;18.016;2022-10-16T10:21:46;100321.44;;;14.76;87.31
14295;BME280;7231;59.370;18.016;2022-10-16T10:24:16;100322.19;;;14.42;87.41
14295;BME280;7231;59.370;18.016;2022-10-16T10:26:51;100343.25;;;14.40;88.29
14295;BME280;7231;59.370;18.016;2022-10-16T10:29:38;100320.34;;;14.27;87.88
14295;BME280;7231;59.370;18.016;2022-10-16T10:32:19;100315.91;;;14.23;88.01
14295;BME280;7231;59.370;18.016;2022-10-16T10:35:06;100322.97;;;14.30;88.29
14295;BME280;7231;59.370;18.016;2022-10-16T10:37:55;100323.88;;;14.34;87.81
14295;BME280;7231;59.370;18.016;2022-10-16T10:40:34;100332.66;;;14.29;87.91
14295;BME280;7231;59.370;18.016;2022-10-16T10:43:14;100316.75;;;14.14;87.14
14295;BME280;7231;59.370;18.016;2022-10-16T10:45:46;100321.16;;;14.14;87.31
14295;BME280;7231;59.370;18.016;2022-10-16T10:48:26;100319.44;;;14.25;87.72
14295;BME280;7231;59.370;18.016;2022-10-16T10:51:01;100322.09;;;14.29;86.85
14295;BME280;7231;59.370;18.016;2022-10-16T10:53:40;100315.97;;;14.32;86.43
14295;BME280;7231;59.370;18.016;2022-10-16T10:56:19;100305.59;;;14.70;87.53
14295;BME280;7231;59.370;18.016;2022-10-16T10:59:02;100301.25;;;15.18;86.69
14295;BME280;7231;59.370;18.016;2022-10-16T11:01:40;100316.25;;;15.54;86.31
14295;BME280;7231;59.370;18.016;2022-10-16T11:04:47;100301.22;;;15.76;83.96
14295;BME280;7231;59.370;18.016;2022-10-16T11:07:21;100301.16;;;16.11;84.58
14295;BME280;7231;59.370;18.016;2022-10-16T11:09:56;100294.88;;;16.39;82.47
14295;BME280;7231;59.370;18.016;2022-10-16T11:12:27;100265.66;;;16.68;82.17
14295;BME280;7231;59.370;18.016;2022-10-16T11:15:02;100298.31;;;16.56;76.47
14295;BME280;7231;59.370;18.016;2022-10-16T11:17:35;100300.28;;;16.03;76.88
14295;BME280;7231;59.370;18.016;2022-10-16T11:20:13;100266.88;;;15.67;77.07
14295;BME280;7231;59.370;18.016;2022-10-16T11:22:45;100287.16;;;15.52;77.39
14295;BME280;7231;59.370;18.016;2022-10-16T11:25:20;100295.09;;;15.33;77.86
14295;BME280;7231;59.370;18.016;2022-10-16T11:27:53;100285.41;;;15.25;78.22
14295;BME280;7231;59.370;18.016;2022-10-16T11:30:24;100280.13;;;15.30;78.57
14295;BME280;7231;59.370;18.016;2022-10-16T11:33:02;100284.53;;;15.23;77.49
14295;BME280;7231;59.370;18.016;2022-10-16T11:35:38;100259.88;;;15.03;77.38
14295;BME280;7231;59.370;18.016;2022-10-16T11:38:14;100278.38;;;15.05;77.25
14295;BME280;7231;59.370;18.016;2022-10-16T11:40:47;100281.00;;;15.06;77.67
14295;BME280;7231;59.370;18.016;2022-10-16T11:43:21;100273.97;;;15.08;77.82
14295;BME280;7231;59.370;18.016;2022-10-16T11:45:52;100273.09;;;15.06;77.64
14295;BME280;7231;59.370;18.016;2022-10-16T11:48:27;100280.13;;;15.03;77.60
14295;BME280;7231;59.370;18.016;2022-10-16T11:51:02;100266.91;;;14.83;77.53
14295;BME280;7231;59.370;18.016;2022-10-16T11:53:41;100266.91;;;14.80;77.73
14295;BME280;7231;59.370;18.016;2022-10-16T11:56:17;100273.03;;;14.76;78.41
14295;BME280;7231;59.370;18.016;2022-10-16T11:58:54;100268.63;;;14.73;78.63
14295;BME280;7231;59.370;18.016;2022-10-16T12:01:29;100260.72;;;14.72;79.14
14295;BME280;7231;59.370;18.016;2022-10-16T12:04:11;100252.81;;;14.73;78.84
14295;BME280;7231;59.370;18.016;2022-10-16T12:06:45;100230.78;;;14.60;79.00
14295;BME280;7231;59.370;18.016;2022-10-16T12:09:20;100242.25;;;14.78;79.13
14295;BME280;7231;59.370;18.016;2022-10-16T12:11:50;100231.72;;;14.84;78.74
14295;BME280;7231;59.370;18.016;2022-10-16T12:17:25;100228.19;;;15.18;78.60
14295;BME280;7231;59.370;18.016;2022-10-16T12:19:59;100233.47;;;15.27;78.01
14295;BME280;7231;59.370;18.016;2022-10-16T12:22:28;100233.47;;;15.24;78.04
14295;BME280;7231;59.370;18.016;2022-10-16T12:24:57;100177.16;;;14.90;77.72
14295;BME280;7231;59.370;18.016;2022-10-16T12:27:28;100218.53;;;15.17;78.23
14295;BME280;7231;59.370;18.016;2022-10-16T12:29:58;100207.06;;;15.37;78.17
14295;BME280;7231;59.370;18.016;2022-10-16T12:32:30;100209.69;;;15.40;77.75
14295;BME280;7231;59.370;18.016;2022-10-16T12:35:19;100208.78;;;15.45;77.76
14295;BME280;7231;59.370;18.016;2022-10-16T12:37:48;100206.16;;;15.39;77.94
14295;BME280;7231;59.370;18.016;2022-10-16T12:40:26;100206.19;;;15.29;78.17
14295;BME280;7231;59.370;18.016;2022-10-16T12:42:56;100174.50;;;15.06;78.41
14295;BME280;7231;59.370;18.016;2022-10-16T12:45:29;100161.31;;;14.95;78.62
14295;BME280;7231;59.370;18.016;2022-10-16T12:47:59;100067.19;;;14.38;78.78
14295;BME280;7231;59.370;18.016;2022-10-16T12:50:31;100188.59;;;15.02;79.22
14295;BME280;7231;59.370;18.016;2022-10-16T12:53:02;100192.13;;;14.91;79.27
14295;BME280;7231;59.370;18.016;2022-10-16T12:55:35;100182.44;;;14.86;79.77
14295;BME280;7231;59.370;18.016;2022-10-16T12:58:27;100149.88;;;14.63;80.08
14295;BME280;7231;59.370;18.016;2022-10-16T13:01:08;100196.50;;;14.74;80.53
14295;BME280;7231;59.370;18.016;2022-10-16T13:03:50;100178.03;;;14.68;80.60
14295;BME280;7231;59.370;18.016;2022-10-16T13:06:32;100171.88;;;14.61;80.61
14295;BME280;7231;59.370;18.016;2022-10-16T13:09:25;100075.94;;;14.05;80.85